Time;durP1;ratioP1;P1;durP2;ratioP2;P2;SDS_P1;SDS_P2;PMS_P1;PMS_P2;Temp;Humidity;BMP_temperature;BMP_pressure;BME280_temperature;BME280_humidity;BME280_pressure;Samples;Min_cycle;Max_cycle;Signal;HPM_P1;HPM_P2
2024/01/05 00:01:50;;;;;;;9.68;3.75;;;6.50;99.90;;;5.79;100.00;99962.88;4185147;28;20037;-68
2024/01/05 00:03:51;;;;;;;9.30;4.00;;;6.50;99.90;;;5.73;100.00;99966.91;4185212;28;20023;-68
2024/01/05 00:05:51;;;;;;;9.40;3.90;;;6.40;99.90;;;5.69;100.00;99962.09;4185213;28;20048;-68
2024/01/05 00:07:53;;;;;;;12.57;6.15;;;6.30;99.90;;;5.63;100.00;99960.88;4184898;28;20025;-68
2024/01/05 00:09:53;;;;;;;18.17;5.57;;;6.30;99.90;;;5.64;100.00;99962.53;4216336;28;20036;-68
2024/01/05 00:11:54;;;;;;;8.65;3.97;;;6.20;99.90;;;5.59;100.00;99960.31;4185173;28;20025;-68
2024/01/05 00:13:56;;;;;;;12.93;5.78;;;6.20;99.90;;;5.55;100.00;99960.78;4184944;28;20040;-68
2024/01/05 00:15:57;;;;;;;12.32;4.57;;;6.20;99.90;;;5.54;100.00;99959.94;4185019;28;20092;-68
2024/01/05 00:17:58;;;;;;;8.25;3.03;;;6.20;99.90;;;5.51;100.00;99960.22;4185209;28;20043;-68
2024/01/05 00:19:59;;;;;;;6.30;3.35;;;6.20;99.90;;;5.56;100.00;99968.47;4185151;28;20052;-68
2024/01/05 00:21:59;;;;;;;9.07;4.00;;;6.20;99.90;;;5.55;100.00;99969.41;4185013;28;20025;-68
2024/01/05 00:24:00;;;;;;;7.63;3.88;;;6.10;99.90;;;5.53;100.00;99965.31;4184997;28;20025;-68
2024/01/05 00:26:04;;;;;;;8.38;4.03;;;6.10;99.90;;;5.49;100.00;99964.78;4185031;28;20408;-68
2024/01/05 00:28:05;;;;;;;8.38;5.55;;;6.10;99.90;;;5.43;100.00;99962.75;4185318;28;20032;-68
2024/01/05 00:30:08;;;;;;;19.90;11.27;;;6.00;99.90;;;5.42;100.00;99961.09;4184801;28;20033;-68
2024/01/05 00:32:08;;;;;;;13.70;7.45;;;6.00;99.90;;;5.42;100.00;99966.31;4184744;28;20025;-69
2024/01/05 00:34:09;;;;;;;7.72;3.50;;;6.00;99.90;;;5.40;100.00;99970.88;4175945;28;20048;-69
2024/01/05 00:36:11;;;;;;;4.53;2.75;;;6.00;99.90;;;5.41;100.00;99963.81;4184969;28;20025;-69
2024/01/05 00:38:12;;;;;;;7.50;2.33;;;6.00;99.90;;;5.40;100.00;99956.97;4183796;28;20040;-68
2024/01/05 00:40:13;;;;;;;7.10;2.55;;;6.00;99.90;;;5.45;100.00;99979.09;4184752;28;20021;-68
2024/01/05 00:42:13;;;;;;;6.40;2.20;;;6.10;99.90;;;5.46;100.00;99964.25;4183935;28;20109;-68
2024/01/05 00:44:14;;;;;;;5.20;2.67;;;6.10;99.90;;;5.49;100.00;99966.56;4184602;28;20028;-68
2024/01/05 00:46:15;;;;;;;8.10;3.30;;;6.10;99.90;;;5.48;100.00;99968.34;4184921;28;20021;-69
2024/01/05 00:48:16;;;;;;;6.05;2.97;;;6.10;99.90;;;5.48;100.00;99975.38;4184919;28;20038;-68
2024/01/05 00:50:17;;;;;;;6.82;3.30;;;6.10;99.90;;;5.47;100.00;99964.09;4183560;28;20032;-69
2024/01/05 00:52:18;;;;;;;6.20;3.30;;;6.10;99.90;;;5.47;100.00;99966.69;4183740;28;20029;-69
2024/01/05 00:54:18;;;;;;;9.77;4.25;;;6.10;99.90;;;5.44;100.00;99956.53;4184855;28;20477;-68
2024/01/05 00:56:19;;;;;;;14.85;5.13;;;6.10;99.90;;;5.48;100.00;99970.16;4184919;28;20032;-68
2024/01/05 00:58:20;;;;;;;10.52;5.00;;;6.10;99.90;;;5.47;100.00;99974.53;4184653;28;20017;-68
2024/01/05 01:00:21;;;;;;;12.52;5.20;;;6.10;99.90;;;5.50;100.00;99968.19;4187898;28;20602;-68
2024/01/05 01:02:22;;;;;;;12.00;4.28;;;6.20;99.90;;;5.53;100.00;99967.91;4186803;28;20029;-69
2024/01/05 01:04:23;;;;;;;8.60;2.80;;;6.20;99.90;;;5.54;100.00;99972.19;4187741;28;20029;-68
2024/01/05 01:06:24;;;;;;;10.82;3.45;;;6.20;99.90;;;5.57;100.00;99977.13;4186727;28;20025;-68
2024/01/05 01:08:25;;;;;;;9.70;3.58;;;6.20;99.90;;;5.55;100.00;99969.41;4187559;28;20033;-68
2024/01/05 01:10:26;;;;;;;7.72;3.03;;;6.20;99.90;;;5.61;100.00;99969.84;4187131;28;20582;-68
2024/01/05 01:12:27;;;;;;;7.85;2.83;;;6.30;99.90;;;5.62;100.00;99972.28;4187770;28;20493;-68
2024/01/05 01:14:29;;;;;;;7.97;3.47;;;6.30;99.90;;;5.63;100.00;99968.72;4187430;28;20021;-68
2024/01/05 01:16:31;;;;;;;7.85;2.92;;;6.30;99.90;;;5.70;100.00;99974.22;4203061;28;20115;-68
2024/01/05 01:18:32;;;;;;;9.18;3.15;;;6.30;99.90;;;5.73;100.00;99958.22;4181620;28;20056;-68
2024/01/05 01:20:32;;;;;;;7.68;3.22;;;6.40;99.90;;;5.74;100.00;99960.69;4182435;28;20400;-68
2024/01/05 01:22:33;;;;;;;8.25;3.13;;;6.40;99.90;;;5.78;100.00;99961.22;4187504;28;20025;-68
2024/01/05 01:24:34;;;;;;;8.40;3.05;;;6.40;99.90;;;5.84;100.00;99971.94;4186409;28;20036;-68
2024/01/05 01:26:35;;;;;;;6.70;2.70;;;6.50;99.90;;;5.85;100.00;99968.41;4187785;28;20025;-68
2024/01/05 01:28:36;;;;;;;6.28;3.35;;;6.50;99.90;;;5.88;100.00;99962.03;4187363;28;20028;-68
2024/01/05 01:30:37;;;;;;;8.82;2.40;;;6.50;99.90;;;5.93;100.00;99965.03;4187349;28;20029;-68
2024/01/05 01:32:37;;;;;;;4.57;2.38;;;6.60;99.90;;;5.96;100.00;99962.13;4187686;28;20473;-68
2024/01/05 01:34:41;;;;;;;7.35;3.15;;;6.60;99.90;;;5.98;100.00;99960.19;4187453;28;20484;-68
2024/01/05 01:36:42;;;;;;;6.03;2.10;;;6.60;99.90;;;6.01;100.00;99952.03;4186253;28;20389;-68
2024/01/05 01:38:43;;;;;;;10.60;2.92;;;6.70;99.90;;;6.01;100.00;99960.72;4187206;28;20044;-68
2024/01/05 01:40:48;;;;;;;4.07;2.50;;;6.70;99.90;;;6.03;100.00;99955.34;4187344;28;20041;-68
2024/01/05 01:42:49;;;;;;;3.03;2.08;;;6.70;99.90;;;5.99;100.00;99956.63;4187452;28;20029;-68
2024/01/05 01:44:51;;;;;;;5.93;2.28;;;6.70;99.90;;;5.97;100.00;99956.75;4187048;28;20078;-68
2024/01/05 01:46:56;;;;;;;4.65;2.45;;;6.60;99.90;;;5.89;100.00;99955.81;4187110;28;20025;-68
2024/01/05 01:48:56;;;;;;;9.57;3.30;;;6.60;99.90;;;5.79;100.00;99963.72;4185919;28;20025;-69
2024/01/05 01:50:58;;;;;;;7.50;2.88;;;6.50;99.90;;;5.68;100.00;99961.25;4187367;28;20021;-68
2024/01/05 01:52:59;;;;;;;10.30;3.10;;;6.40;99.90;;;5.58;100.00;99957.88;4185514;28;20036;-68
2024/01/05 01:55:00;;;;;;;5.85;2.28;;;6.30;99.90;;;5.45;100.00;99958.19;4186995;28;20025;-69
2024/01/05 01:57:04;;;;;;;5.18;2.72;;;6.20;99.90;;;5.37;100.00;99962.47;4169308;28;20520;-68
2024/01/05 01:59:07;;;;;;;7.45;3.40;;;6.10;99.90;;;5.26;100.00;99958.22;4186986;28;20059;-68
2024/01/05 02:01:09;;;;;;;6.72;2.67;;;6.00;99.90;;;5.19;100.00;99957.16;4185844;28;20043;-68
2024/01/05 02:03:11;;;;;;;5.20;2.35;;;5.90;99.90;;;5.15;100.00;99968.00;4185844;28;20511;-68
2024/01/05 02:05:12;;;;;;;6.70;2.92;;;5.90;99.90;;;5.07;100.00;99966.13;4187078;28;20497;-68
2024/01/05 02:07:13;;;;;;;3.28;2.13;;;5.80;99.90;;;5.06;100.00;99969.69;4219136;28;20066;-68
2024/01/05 02:09:14;;;;;;;5.38;3.13;;;5.80;99.90;;;5.03;100.00;99964.72;4181719;28;20032;-68
2024/01/05 02:11:15;;;;;;;3.75;2.72;;;5.80;99.90;;;5.00;100.00;99971.06;4186552;28;20539;-68
2024/01/05 02:13:16;;;;;;;5.63;2.58;;;5.70;99.90;;;4.98;100.00;99972.19;4186853;28;20029;-68
2024/01/05 02:15:18;;;;;;;6.47;2.80;;;5.70;99.90;;;4.97;100.00;99965.28;4186859;28;20027;-68
2024/01/05 02:17:33;;;;;;;5.63;2.47;;;5.70;99.90;;;4.94;100.00;99981.25;4185754;28;20033;-68
2024/01/05 02:19:34;;;;;;;;;;;5.60;99.90;;;4.86;100.00;99978.50;4187252;28;20029;-69
2024/01/05 02:21:42;;;;;;;7.22;2.97;;;5.60;99.90;;;4.89;100.00;99986.06;4185583;28;19934;-68
2024/01/05 02:23:43;;;;;;;6.47;3.05;;;5.60;99.90;;;4.92;100.00;99985.81;4171935;28;20029;-68
2024/01/05 02:25:44;;;;;;;7.65;3.05;;;5.50;99.90;;;4.98;100.00;99985.25;4187643;28;20056;-68
2024/01/05 02:27:44;;;;;;;8.18;3.42;;;5.60;99.90;;;5.07;100.00;99970.50;4185520;28;20488;-68
2024/01/05 02:29:45;;;;;;;4.82;3.10;;;5.70;99.90;;;5.23;100.00;99982.03;4186459;28;20036;-68
2024/01/05 02:31:46;;;;;;;10.48;3.35;;;5.80;99.90;;;5.33;100.00;99984.63;4186526;28;20044;-68
2024/01/05 02:33:47;;;;;;;10.32;3.22;;;6.00;99.90;;;5.35;100.00;99980.91;4186393;28;20492;-68
2024/01/05 02:35:48;;;;;;;6.75;3.00;;;6.00;99.90;;;5.41;100.00;99984.75;4185283;28;20492;-68
2024/01/05 02:37:48;;;;;;;13.55;3.60;;;6.00;99.90;;;5.50;100.00;99983.91;4186559;28;20029;-68
2024/01/05 02:39:49;;;;;;;5.28;3.35;;;6.10;99.90;;;5.56;100.00;99989.38;4186337;28;20480;-68
2024/01/05 02:41:50;;;;;;;6.03;2.63;;;6.20;99.90;;;5.58;100.00;99984.81;4184982;28;20396;-68
2024/01/05 02:43:51;;;;;;;8.27;2.72;;;6.20;99.90;;;5.63;100.00;99991.44;4186368;28;21016;-68
2024/01/05 02:45:52;;;;;;;5.95;2.95;;;6.30;99.90;;;5.65;100.00;99979.84;4186299;28;20037;-68
2024/01/05 02:47:53;;;;;;;5.82;2.95;;;6.30;99.90;;;5.73;100.00;99990.44;4185920;28;20032;-68
2024/01/05 02:49:54;;;;;;;8.23;2.50;;;6.40;99.90;;;5.81;100.00;99981.88;4181142;28;20462;-68
2024/01/05 02:51:55;;;;;;;5.07;2.38;;;6.50;99.90;;;5.90;100.00;99991.50;4186046;28;20033;-68
2024/01/05 02:53:56;;;;;;;8.25;2.88;;;6.50;99.90;;;5.96;100.00;99991.75;4186218;28;20029;-68
2024/01/05 02:55:56;;;;;;;7.72;2.92;;;6.60;99.90;;;6.00;100.00;99987.06;4186309;28;20557;-68
2024/01/05 02:57:57;;;;;;;6.90;2.10;;;6.60;99.90;;;6.05;100.00;99990.88;4186075;28;20029;-68
2024/01/05 02:59:58;;;;;;;5.00;2.17;;;6.70;99.90;;;6.10;100.00;99982.59;4185701;28;20032;-68
2024/01/05 03:02:00;;;;;;;3.85;2.28;;;6.70;99.90;;;6.17;100.00;99982.84;4186078;28;20036;-68
2024/01/05 03:04:01;;;;;;;11.02;3.10;;;6.80;99.90;;;6.18;100.00;99980.09;4186153;28;20025;-68
2024/01/05 03:06:02;;;;;;;4.68;2.35;;;6.80;99.90;;;6.17;100.00;99973.19;4185970;28;20036;-68
2024/01/05 03:08:04;;;;;;;8.15;3.40;;;6.80;99.90;;;6.23;100.00;99982.25;4185648;28;20040;-68
2024/01/05 03:10:05;;;;;;;7.70;3.60;;;6.90;99.90;;;6.25;100.00;99981.13;4185085;28;20053;-68
2024/01/05 03:12:07;;;;;;;9.95;3.80;;;6.90;99.90;;;6.25;100.00;99975.06;4185952;28;20150;-68
2024/01/05 03:14:08;;;;;;;9.43;4.25;;;6.90;99.90;;;6.25;100.00;99975.88;4185775;28;20388;-68
2024/01/05 03:16:09;;;;;;;9.85;3.63;;;6.90;99.90;;;6.27;100.00;99978.38;4185647;28;20029;-68
2024/01/05 03:18:10;;;;;;;5.80;3.92;;;7.00;99.90;;;6.28;100.00;99986.06;4185926;28;20087;-68
2024/01/05 03:20:11;;;;;;;7.57;3.70;;;7.00;99.90;;;6.25;100.00;99975.06;4185804;28;20036;-68
2024/01/05 03:22:12;;;;;;;7.75;2.88;;;6.90;99.90;;;6.22;100.00;99983.22;4184874;28;20447;-68
2024/01/05 03:24:13;;;;;;;9.82;2.75;;;6.90;99.90;;;6.12;100.00;99978.84;4185581;28;20025;-68
2024/01/05 03:26:13;;;;;;;7.95;2.90;;;6.90;99.90;;;6.06;100.00;99982.03;4185894;28;20021;-68
2024/01/05 03:28:15;;;;;;;4.88;2.63;;;6.80;99.90;;;6.01;100.00;99978.22;4184229;28;20013;-68
2024/01/05 03:30:16;;;;;;;10.88;2.88;;;6.80;99.90;;;6.00;100.00;99976.59;4186174;28;20021;-68
2024/01/05 03:32:17;;;;;;;8.48;2.42;;;6.70;99.90;;;6.01;100.00;99983.47;4185511;28;20028;-68
2024/01/05 03:34:17;;;;;;;6.82;2.17;;;6.70;99.90;;;5.95;100.00;99978.81;4200896;28;20024;-68
2024/01/05 03:36:18;;;;;;;4.60;2.08;;;6.70;99.90;;;5.91;100.00;99982.69;4185555;28;20063;-68
2024/01/05 03:38:19;;;;;;;5.57;2.70;;;6.60;99.90;;;5.85;100.00;99978.88;4217207;28;20054;-68
2024/01/05 03:40:20;;;;;;;5.78;2.25;;;6.60;99.90;;;5.79;100.00;99975.97;4185329;28;20036;-68
2024/01/05 03:42:21;;;;;;;2.33;1.88;;;6.50;99.90;;;5.71;100.00;99970.59;4185552;28;20021;-68
2024/01/05 03:44:21;;;;;;;5.25;2.08;;;6.50;99.90;;;5.69;100.00;99976.00;4185428;28;20020;-68
2024/01/05 03:46:22;;;;;;;5.20;1.90;;;6.40;99.90;;;5.66;100.00;99978.06;4217543;28;20028;-68
2024/01/05 03:48:23;;;;;;;3.55;1.65;;;6.40;99.90;;;5.64;100.00;99972.16;4185229;28;20032;-68
2024/01/05 03:50:25;;;;;;;4.40;1.90;;;6.30;99.90;;;5.63;100.00;99973.94;4217583;28;20020;-68
2024/01/05 03:52:26;;;;;;;7.68;2.22;;;6.30;99.90;;;5.63;100.00;99981.81;4185421;28;20024;-68
2024/01/05 03:54:26;;;;;;;4.40;2.13;;;6.30;99.90;;;5.61;100.00;99975.06;4185298;28;20074;-68
2024/01/05 03:56:27;;;;;;;6.57;2.45;;;6.30;99.90;;;5.59;100.00;99978.63;4217378;28;20035;-68
2024/01/05 03:58:28;;;;;;;6.72;2.33;;;6.30;99.90;;;5.56;100.00;99986.78;4185149;28;20078;-68
2024/01/05 04:00:29;;;;;;;3.50;1.83;;;6.30;99.90;;;5.55;100.00;99982.50;4183969;28;20542;-68
2024/01/05 04:02:30;;;;;;;5.03;1.80;;;6.30;99.90;;;5.56;100.00;99984.16;4185218;28;20512;-68
2024/01/05 04:04:31;;;;;;;6.55;1.95;;;6.30;99.90;;;5.59;100.00;99985.66;4185093;28;20399;-68
2024/01/05 04:06:31;;;;;;;6.15;2.67;;;6.30;99.90;;;5.63;100.00;99978.34;4185159;28;20063;-68
2024/01/05 04:08:32;;;;;;;4.18;2.38;;;6.30;99.90;;;5.68;100.00;99984.81;4184280;28;20029;-68
2024/01/05 04:10:33;;;;;;;5.28;2.17;;;6.40;99.90;;;5.73;100.00;99985.22;4184941;28;20047;-68
2024/01/05 04:12:34;;;;;;;3.90;2.17;;;6.40;99.90;;;5.78;100.00;99985.59;4183818;28;20033;-68
2024/01/05 04:14:35;;;;;;;5.80;1.88;;;6.50;99.90;;;5.80;100.00;99977.59;4185018;28;20025;-68
2024/01/05 04:16:36;;;;;;;7.32;2.03;;;6.50;99.90;;;5.92;100.00;99994.78;4185315;28;20476;-68
2024/01/05 04:18:37;;;;;;;5.35;2.38;;;6.60;99.90;;;5.95;100.00;99991.88;4217528;28;20124;-68
2024/01/05 04:20:38;;;;;;;4.45;1.70;;;6.60;99.90;;;6.00;100.00;99992.31;4185054;28;20040;-69
2024/01/05 04:22:39;;;;;;;4.05;1.70;;;6.60;99.90;;;6.06;100.00;99991.72;4184959;28;20029;-68
2024/01/05 04:24:40;;;;;;;6.13;1.52;;;6.70;99.90;;;6.05;100.00;99983.03;4178168;28;20029;-68
2024/01/05 04:26:41;;;;;;;5.85;1.92;;;6.80;99.90;;;6.10;100.00;99978.19;4185126;28;20439;-68
2024/01/05 04:28:42;;;;;;;7.60;1.92;;;6.80;99.90;;;6.16;100.00;99982.00;4184976;28;20033;-68
2024/01/05 04:30:43;;;;;;;5.68;1.70;;;6.80;99.90;;;6.20;100.00;99977.31;4183673;28;20500;-68
2024/01/05 04:32:44;;;;;;;7.10;1.98;;;6.90;99.90;;;6.23;100.00;99977.84;4184450;28;20059;-68
2024/01/05 04:34:45;;;;;;;8.50;1.85;;;6.90;99.90;;;6.27;100.00;99978.38;4188399;28;20021;-68
2024/01/05 04:36:46;;;;;;;5.72;1.98;;;6.90;99.90;;;6.29;100.00;99982.50;4188312;28;20040;-68
2024/01/05 04:38:47;;;;;;;7.40;2.10;;;7.00;99.90;;;6.30;100.00;99981.50;4188149;28;20033;-68
2024/01/05 04:40:48;;;;;;;6.20;1.83;;;7.00;99.90;;;6.34;100.00;99984.66;4187123;28;20040;-68
2024/01/05 04:42:49;;;;;;;5.38;1.48;;;7.00;99.90;;;6.36;100.00;99985.34;4187148;28;20029;-68
2024/01/05 04:44:49;;;;;;;7.45;1.95;;;7.00;99.90;;;6.35;100.00;99984.53;4187787;28;20029;-68
2024/01/05 04:46:50;;;;;;;3.83;1.90;;;7.10;99.90;;;6.35;100.00;99981.91;4188187;28;20480;-68
2024/01/05 04:48:51;;;;;;;4.72;1.90;;;7.00;99.90;;;6.37;100.00;99981.75;4187198;28;20075;-68
2024/01/05 04:50:52;;;;;;;7.82;2.03;;;7.00;99.90;;;6.34;100.00;99976.78;4188341;28;20029;-68
2024/01/05 04:52:53;;;;;;;4.80;2.08;;;7.00;99.90;;;6.30;100.00;99976.25;4188026;28;20476;-68
2024/01/05 04:54:54;;;;;;;7.15;2.40;;;7.00;99.90;;;6.29;100.00;99979.88;4187942;28;20033;-68
2024/01/05 04:56:55;;;;;;;10.45;2.45;;;7.00;99.90;;;6.30;100.00;99983.31;4187127;28;20051;-68
2024/01/05 04:58:56;;;;;;;4.70;2.00;;;6.90;99.90;;;6.27;100.00;99983.59;4187759;28;20036;-68
2024/01/05 05:00:57;;;;;;;4.05;2.03;;;6.90;99.90;;;6.27;100.00;99978.38;4187610;28;20086;-68
2024/01/05 05:02:58;;;;;;;5.18;2.25;;;6.90;99.90;;;6.24;100.00;99982.13;4188102;28;20477;-69
2024/01/05 05:04:58;;;;;;;7.38;2.03;;;6.90;99.90;;;6.23;100.00;99980.47;4187981;28;20036;-69
2024/01/05 05:06:59;;;;;;;8.00;2.03;;;6.90;99.90;;;6.23;100.00;99982.25;4220014;28;20164;-69
2024/01/05 05:09:00;;;;;;;5.10;1.70;;;6.90;99.90;;;6.25;100.00;99977.69;4186815;28;20029;-69
2024/01/05 05:11:02;;;;;;;5.82;1.80;;;6.90;99.90;;;6.25;100.00;99981.13;4187805;28;20070;-69
2024/01/05 05:13:04;;;;;;;5.63;1.50;;;6.90;99.90;;;6.26;100.00;99979.34;4219801;28;20035;-69
2024/01/05 05:15:05;;;;;;;8.20;1.58;;;6.90;99.90;;;6.30;100.00;99986.72;4188086;28;20104;-68
2024/01/05 05:17:06;;;;;;;4.47;1.52;;;7.00;99.90;;;6.32;100.00;99983.97;4187907;28;20102;-68
2024/01/05 05:19:07;;;;;;;3.45;1.50;;;7.00;99.90;;;6.34;100.00;99982.88;4187669;28;20024;-68
2024/01/05 05:21:08;;;;;;;3.85;1.35;;;7.00;99.90;;;6.36;100.00;99988.75;4187424;28;20044;-68
2024/01/05 05:23:09;;;;;;;4.50;1.40;;;7.00;99.90;;;6.41;100.00;99991.78;4219833;28;20024;-69
2024/01/05 05:25:10;;;;;;;3.83;1.50;;;7.10;99.90;;;6.43;100.00;99994.25;4187639;28;20029;-69
2024/01/05 05:27:11;;;;;;;4.28;1.40;;;7.10;99.90;;;6.43;100.00;100000.31;4187530;28;20018;-68
2024/01/05 05:29:12;;;;;;;4.25;1.23;;;7.10;99.90;;;6.43;100.00;100002.09;4187263;28;20556;-69
2024/01/05 05:31:13;;;;;;;5.07;1.67;;;7.10;99.90;;;6.38;100.00;99999.94;4187615;28;20033;-69
2024/01/05 05:33:14;;;;;;;2.88;1.25;;;7.10;99.90;;;6.39;100.00;99998.94;4219690;28;20107;-68
2024/01/05 05:35:14;;;;;;;2.45;1.45;;;7.10;99.90;;;6.36;100.00;100001.88;4186421;28;20030;-68
2024/01/05 05:37:15;;;;;;;4.00;1.88;;;7.10;99.90;;;6.38;100.00;100013.03;4187276;28;20107;-68
2024/01/05 05:39:16;;;;;;;6.20;1.48;;;7.10;99.90;;;6.36;100.00;100009.72;4183689;28;20021;-68
2024/01/05 05:41:17;;;;;;;3.30;1.17;;;7.10;99.90;;;6.37;100.00;100006.13;4178056;28;20036;-68
2024/01/05 05:43:18;;;;;;;5.13;1.55;;;7.00;99.90;;;6.41;100.00;100009.28;4187205;28;20025;-68
2024/01/05 05:45:18;;;;;;;5.28;1.35;;;7.10;99.90;;;6.42;100.00;99997.84;4185238;28;20025;-68
2024/01/05 05:47:19;;;;;;;3.28;1.38;;;7.10;99.90;;;6.42;100.00;100009.13;4169746;28;20022;-68
2024/01/05 05:49:20;;;;;;;2.85;1.23;;;7.10;99.90;;;6.50;100.00;100017.09;4187343;28;20017;-68
2024/01/05 05:51:21;;;;;;;4.05;1.45;;;7.10;99.90;;;6.51;100.00;100010.06;4187382;28;20507;-68
2024/01/05 05:53:22;;;;;;;3.70;1.02;;;7.20;99.90;;;6.54;100.00;100015.00;4187071;28;20029;-68
2024/01/05 05:55:23;;;;;;;3.08;1.45;;;7.20;99.90;;;6.54;100.00;100007.94;4187239;28;20055;-68
2024/01/05 05:57:24;;;;;;;3.80;1.38;;;7.20;99.90;;;6.58;100.00;100018.97;4187166;28;20064;-68
2024/01/05 05:59:24;;;;;;;3.47;1.30;;;7.20;99.90;;;6.59;100.00;100021.47;4183402;28;20048;-68
2024/01/05 06:01:25;;;;;;;3.30;1.02;;;7.20;99.90;;;6.57;100.00;100018.13;4216434;28;20043;-68
2024/01/05 06:03:26;;;;;;;3.05;1.27;;;7.20;99.90;;;6.58;100.00;100011.09;4187067;28;20013;-68
2024/01/05 06:05:27;;;;;;;2.80;1.38;;;7.30;99.90;;;6.56;100.00;100011.28;4187014;28;20024;-68
2024/01/05 06:07:28;;;;;;;6.60;1.50;;;7.20;99.90;;;6.56;100.00;100013.06;4185565;28;20443;-68
2024/01/05 06:09:29;;;;;;;5.88;1.52;;;7.20;99.90;;;6.46;100.00;100012.28;4184426;28;20111;-68
2024/01/05 06:11:29;;;;;;;3.90;1.50;;;7.10;99.90;;;6.41;100.00;100017.97;4187055;28;20091;-68
2024/01/05 06:13:30;;;;;;;3.65;1.52;;;7.10;99.90;;;6.35;100.00;100018.56;4186839;28;20039;-68
2024/01/05 06:15:31;;;;;;;5.32;1.98;;;7.00;99.90;;;6.26;100.00;100013.38;4186864;28;20033;-68
2024/01/05 06:17:32;;;;;;;5.75;2.17;;;7.00;99.90;;;6.14;100.00;100015.38;4185571;28;20182;-68
2024/01/05 06:19:33;;;;;;;5.75;1.40;;;6.90;99.90;;;6.08;100.00;100013.34;4186797;28;20484;-68
2024/01/05 06:21:34;;;;;;;5.50;1.48;;;6.80;99.90;;;5.98;100.00;100015.16;4186730;28;20025;-68
2024/01/05 06:23:35;;;;;;;6.10;1.20;;;6.70;99.90;;;5.90;100.00;100010.66;4186731;28;20032;-68
2024/01/05 06:25:35;;;;;;;6.30;1.52;;;6.60;99.90;;;5.85;100.00;100017.25;4202099;28;20035;-68
2024/01/05 06:27:36;;;;;;;3.90;1.33;;;6.60;99.90;;;5.78;100.00;100019.63;4186460;28;20078;-68
2024/01/05 06:29:37;;;;;;;4.07;1.33;;;6.50;99.90;;;5.79;100.00;100025.69;4180435;28;20083;-68
2024/01/05 06:31:38;;;;;;;3.45;1.00;;;6.50;99.90;;;5.80;100.00;100032.56;4179012;28;20031;-68
2024/01/05 06:33:39;;;;;;;4.85;1.33;;;6.50;99.90;;;5.82;100.00;100036.69;4185387;28;20033;-68
2024/01/05 06:35:40;;;;;;;6.82;1.20;;;6.50;99.90;;;5.80;100.00;100032.56;4186379;28;20029;-68
2024/01/05 06:37:41;;;;;;;3.58;1.73;;;6.50;99.90;;;5.87;100.00;100038.91;4185400;28;20048;-68
2024/01/05 06:39:42;;;;;;;7.53;1.10;;;6.50;99.90;;;5.91;100.00;100043.69;4186499;28;20032;-68
2024/01/05 06:41:43;;;;;;;4.00;0.93;;;6.50;99.90;;;5.92;100.00;100041.91;4186373;28;20047;-68
2024/01/05 06:43:43;;;;;;;4.05;1.65;;;6.60;99.90;;;5.95;100.00;100046.84;4185990;28;20033;-68
2024/01/05 06:45:44;;;;;;;4.15;1.10;;;6.60;99.90;;;5.99;100.00;100043.81;4185885;28;20073;-68
2024/01/05 06:47:45;;;;;;;3.05;1.30;;;6.60;99.90;;;6.01;100.00;100049.72;4185091;28;20083;-68
2024/01/05 06:49:46;;;;;;;3.58;1.00;;;6.70;99.90;;;6.09;100.00;100051.66;4180659;28;20025;-68
2024/01/05 06:51:47;;;;;;;2.13;1.20;;;6.70;99.90;;;6.09;100.00;100049.81;4184106;28;20476;-68
2024/01/05 06:53:48;;;;;;;3.13;1.70;;;6.70;99.90;;;6.12;100.00;100054.78;4186399;28;20028;-68
2024/01/05 06:55:48;;;;;;;4.78;1.20;;;6.80;99.90;;;6.06;100.00;100054.56;4184994;28;20029;-68
2024/01/05 06:57:49;;;;;;;7.70;1.55;;;6.70;99.90;;;6.06;100.00;100057.97;4187833;28;20040;-68
2024/01/05 06:59:50;;;;;;;8.30;1.23;;;6.70;99.90;;;6.01;100.00;100060.19;4185717;28;20029;-68
2024/01/05 07:01:51;;;;;;;7.68;1.67;;;6.70;99.90;;;5.94;100.00;100066.16;4186281;28;20087;-68
2024/01/05 07:03:52;;;;;;;7.25;1.48;;;6.60;99.90;;;5.86;100.00;100053.78;4185671;28;20025;-68
2024/01/05 07:05:53;;;;;;;3.97;1.98;;;6.60;99.90;;;5.78;100.00;100060.66;4201390;28;20036;-68
2024/01/05 07:07:54;;;;;;;4.18;2.00;;;6.50;99.90;;;5.68;100.00;100060.69;4185754;28;20076;-68
2024/01/05 07:09:54;;;;;;;5.63;1.70;;;6.40;99.90;;;5.59;100.00;100054.50;4183720;28;20049;-68
2024/01/05 07:11:55;;;;;;;6.05;1.52;;;6.30;99.90;;;5.50;100.00;100057.97;4184812;28;20099;-68
2024/01/05 07:13:56;;;;;;;7.68;2.08;;;6.30;99.90;;;5.38;100.00;100064.31;4184703;28;20031;-68
2024/01/05 07:15:57;;;;;;;4.13;1.48;;;6.10;99.90;;;5.30;100.00;100065.97;4184611;28;20025;-68
2024/01/05 07:17:58;;;;;;;10.00;1.92;;;6.10;99.90;;;5.22;100.00;100069.28;4185971;28;20025;-68
2024/01/05 07:19:59;;;;;;;6.32;1.88;;;6.00;99.90;;;5.19;100.00;100080.03;4184680;28;20032;-68
2024/01/05 07:22:00;;;;;;;7.47;1.50;;;5.90;99.90;;;5.15;100.00;100073.41;4185704;28;20111;-68
2024/01/05 07:24:00;;;;;;;7.22;1.75;;;5.90;99.90;;;5.11;100.00;100081.69;4185722;28;20025;-68
2024/01/05 07:26:01;;;;;;;3.35;1.75;;;5.80;99.90;;;5.05;100.00;100083.03;4217877;28;20024;-68
2024/01/05 07:28:03;;;;;;;3.95;1.60;;;5.80;99.90;;;4.98;100.00;100081.94;4185548;28;20578;-68
2024/01/05 07:30:05;;;;;;;4.28;1.60;;;5.70;99.90;;;4.93;100.00;100084.13;4176905;28;20052;-68
2024/01/05 07:32:06;;;;;;;8.15;1.40;;;5.60;99.90;;;4.85;100.00;100090.03;4180869;28;20035;-68
2024/01/05 07:34:07;;;;;;;4.93;1.77;;;5.60;99.90;;;4.81;100.00;100086.03;4185677;28;20072;-68
2024/01/05 07:36:08;;;;;;;4.63;1.77;;;5.50;99.90;;;4.78;100.00;100091.53;4185626;28;20099;-68
2024/01/05 07:38:09;;;;;;;5.03;2.00;;;5.50;99.90;;;4.80;100.00;100096.63;4185625;28;20037;-68
2024/01/05 07:40:10;;;;;;;9.52;2.63;;;5.40;99.90;;;4.74;100.00;100090.16;4185593;28;20107;-68
2024/01/05 07:42:11;;;;;;;7.93;1.50;;;5.40;99.90;;;4.71;100.00;100095.66;4184129;28;20056;-68
2024/01/05 07:44:12;;;;;;;9.52;1.67;;;5.40;99.90;;;4.68;100.00;100100.31;4185321;28;20028;-68
2024/01/05 07:46:13;;;;;;;5.43;1.63;;;5.30;99.90;;;4.66;100.00;100097.03;4217599;28;20524;-68
2024/01/05 07:48:13;;;;;;;6.13;2.08;;;5.30;99.90;;;4.59;100.00;100101.94;4185416;28;20025;-68
2024/01/05 07:50:15;;;;;;;4.65;1.17;;;5.20;99.90;;;4.54;100.00;100101.50;4184833;28;20033;-68
2024/01/05 07:52:17;;;;;;;6.65;1.23;;;5.20;99.90;;;4.47;100.00;100098.63;4185421;28;20025;-68
2024/01/05 07:54:18;;;;;;;9.10;1.13;;;5.20;99.90;;;4.43;100.00;100104.22;4185553;28;20032;-68
2024/01/05 07:56:18;;;;;;;6.72;1.48;;;5.10;99.90;;;4.39;100.00;100108.88;4217636;28;20028;-68
2024/01/05 07:58:19;;;;;;;6.13;1.25;;;5.10;99.90;;;4.34;100.00;100108.47;4185013;28;20029;-68
2024/01/05 08:00:20;;;;;;;6.88;1.52;;;5.00;99.90;;;4.30;100.00;100108.88;4181351;28;20029;-68
2024/01/05 08:02:21;;;;;;;8.02;2.17;;;5.00;99.90;;;4.25;100.00;100111.84;4185199;28;20400;-68
2024/01/05 08:04:22;;;;;;;3.67;1.80;;;4.90;99.90;;;4.25;100.00;100114.47;4185250;28;20020;-70
2024/01/05 08:06:23;;;;;;;8.15;1.65;;;4.90;99.90;;;4.27;100.00;100122.19;4185092;28;20032;-68
2024/01/05 08:08:24;;;;;;;5.80;1.73;;;4.90;99.90;;;4.24;100.00;100117.22;4184722;28;20480;-69
2024/01/05 08:10:24;;;;;;;7.03;1.83;;;4.90;99.90;;;4.23;100.00;100126.00;4184274;28;20508;-68
2024/01/05 08:12:26;;;;;;;6.60;2.17;;;4.90;99.90;;;4.17;100.00;100116.91;4185137;28;20028;-68
2024/01/05 08:14:26;;;;;;;4.25;1.60;;;4.80;99.90;;;4.16;100.00;100136.13;4183815;28;20396;-68
2024/01/05 08:16:28;;;;;;;5.40;1.80;;;4.80;99.90;;;4.14;100.00;100138.06;4185228;28;20087;-68
2024/01/05 08:18:29;;;;;;;3.50;2.08;;;4.80;99.90;;;4.15;100.00;100133.66;4183892;28;20029;-68
2024/01/05 08:20:30;;;;;;;4.35;1.83;;;4.80;99.90;;;4.14;100.00;100140.66;4185065;28;20149;-68
2024/01/05 08:22:30;;;;;;;7.50;2.17;;;4.80;99.90;;;4.13;100.00;100133.78;4183800;28;20029;-68
2024/01/05 08:24:31;;;;;;;7.43;2.40;;;4.80;99.90;;;4.14;100.00;100137.22;4183908;28;20455;-68
2024/01/05 08:26:32;;;;;;;7.13;2.35;;;4.80;99.90;;;4.14;100.00;100142.44;4185260;28;20555;-68
2024/01/05 08:28:33;;;;;;;8.10;2.35;;;4.80;99.90;;;4.12;100.00;100137.34;4217050;28;20024;-68
2024/01/05 08:30:34;;;;;;;8.00;2.30;;;4.80;99.90;;;4.12;100.00;100142.56;4175456;28;20037;-68
2024/01/05 08:32:35;;;;;;;9.20;3.13;;;4.80;99.90;;;4.09;100.00;100140.22;4183796;28;20032;-68